Time;durP1;ratioP1;P1;durP2;ratioP2;P2;SDS_P1;SDS_P2;PMS_P1;PMS_P2;Temp;Humidity;BMP_temperature;BMP_pressure;BME280_temperature;BME280_humidity;BME280_pressure;Samples;Min_cycle;Max_cycle;Signal;HPM_P1;HPM_P2
2023/04/13 00:01:59;;;;;;;;;;;6.20;99.90;;;;;;5108182;28;19973;-75
2023/04/13 00:04:25;;;;;;;;;;;6.20;99.90;;;;;;5104016;28;20019;-75
2023/04/13 00:06:51;;;;;;;;;;;6.10;99.90;;;;;;5105702;28;19927;-75
2023/04/13 00:09:17;;;;;;;;;;;6.10;99.90;;;;;;5103118;28;19993;-75
2023/04/13 00:11:45;;;;;;;;;;;6.10;99.90;;;;;;5090436;28;20394;-76
2023/04/13 00:14:11;;;;;;;;;;;6.00;99.90;;;;;;5087901;28;19924;-76
2023/04/13 00:16:37;;;;;;;;;;;6.00;99.90;;;;;;5092895;28;19931;-76
2023/04/13 00:19:03;;;;;;;;;;;6.00;99.90;;;;;;5097414;28;19928;-76
2023/04/13 00:21:28;;;;;;;;;;;5.90;99.90;;;;;;5091998;28;19924;-76
2023/04/13 00:23:54;;;;;;;;;;;5.90;99.90;;;;;;5073606;28;20406;-76
2023/04/13 00:26:20;;;;;;;;;;;5.90;99.90;;;;;;5072950;28;19947;-76
2023/04/13 00:28:46;;;;;;;;;;;5.90;99.90;;;;;;5077324;28;20394;-76
2023/04/13 00:31:12;;;;;;;;;;;5.90;99.90;;;;;;5091927;28;19931;-76
2023/04/13 00:33:38;;;;;;;;;;;5.90;99.90;;;;;;5094632;28;20309;-76
2023/04/13 00:36:04;;;;;;;;;;;5.90;99.90;;;;;;5102316;28;19939;-76
2023/04/13 00:38:30;;;;;;;;;;;5.90;99.90;;;;;;5102078;28;19930;-76
2023/04/13 00:40:56;;;;;;;;;;;6.00;99.90;;;;;;5081496;28;19924;-76
2023/04/13 00:43:22;;;;;;;;;;;6.00;99.90;;;;;;5100724;28;19935;-76
2023/04/13 00:45:47;;;;;;;;;;;6.10;99.90;;;;;;5102673;28;19963;-75
2023/04/13 00:48:13;;;;;;;;;;;6.10;99.90;;;;;;5107824;28;19931;-76
2023/04/13 00:50:40;;;;;;;;;;;6.10;99.90;;;;;;5088339;28;19924;-76
2023/04/13 00:53:06;;;;;;;;;;;6.10;99.90;;;;;;5096309;28;20022;-76
2023/04/13 00:55:32;;;;;;;;;;;6.20;99.90;;;;;;5105251;28;20022;-76
2023/04/13 00:57:58;;;;;;;;;;;6.20;99.90;;;;;;5078991;28;19960;-76
2023/04/13 01:00:24;;;;;;;;;;;6.20;99.90;;;;;;5089321;28;19951;-76
2023/04/13 01:02:51;;;;;;;;;;;6.20;99.90;;;;;;5071001;28;19928;-76
2023/04/13 01:05:17;;;;;;;;;;;6.20;99.90;;;;;;5092718;28;19972;-76
2023/04/13 01:07:58;;;;;;;;;;;6.20;99.90;;;;;;5092848;28;19946;-76
2023/04/13 01:10:29;;;;;;;;;;;6.20;99.90;;;;;;5093505;28;19924;-76
2023/04/13 01:13:01;;;;;;;;;;;6.20;99.90;;;;;;5092568;28;19924;-76
2023/04/13 01:15:31;;;;;;;;;;;6.20;99.90;;;;;;5093310;28;19931;-76
2023/04/13 01:18:03;;;;;;;;;;;6.20;99.90;;;;;;5110478;28;19923;-76
2023/04/13 01:20:31;;;;;;;;;;;6.20;99.90;;;;;;5110121;28;19923;-76
2023/04/13 01:22:57;;;;;;;;;;;6.20;99.90;;;;;;5099112;28;19976;-76
2023/04/13 01:25:44;;;;;;;;;;;6.30;99.90;;;;;;5107760;28;19928;-76
2023/04/13 01:28:18;;;;;;;;;;;6.30;99.90;;;;;;5110862;28;19998;-76
2023/04/13 01:30:46;;;;;;;;;;;6.30;99.90;;;;;;5108609;28;19924;-76
2023/04/13 01:33:12;;;;;;;;;;;6.40;99.90;;;;;;5112048;28;19928;-76
2023/04/13 01:35:38;;;;;;;;;;;6.40;99.90;;;;;;5109620;28;19924;-76
2023/04/13 01:38:05;;;;;;;;;;;6.50;99.90;;;;;;5110469;28;19927;-76
2023/04/13 01:40:33;;;;;;;;;;;6.50;99.90;;;;;;5111276;27;19924;-76
2023/04/13 01:42:59;;;;;;;;;;;6.60;99.90;;;;;;5111637;28;19971;-76
2023/04/13 01:45:24;;;;;;;;;;;6.60;99.90;;;;;;5110074;28;19959;-76
2023/04/13 01:47:50;;;;;;;;;;;6.60;99.90;;;;;;5099415;28;19931;-77
2023/04/13 01:50:24;;;;;;;;;;;6.60;99.90;;;;;;5106494;28;19969;-76
2023/04/13 01:52:51;;;;;;;;;;;6.50;99.90;;;;;;5111478;28;19987;-76
2023/04/13 01:55:17;;;;;;;;;;;6.50;99.90;;;;;;5104479;28;19928;-76
2023/04/13 01:57:44;;;;;;;;;;;6.40;99.90;;;;;;5091675;28;19928;-76
2023/04/13 02:00:11;;;;;;;;;;;6.50;99.90;;;;;;5091614;28;19956;-76
2023/04/13 02:02:37;;;;;;;;;;;6.40;99.90;;;;;;5090924;28;20457;-76
2023/04/13 02:05:03;;;;;;;;;;;6.40;99.90;;;;;;5107171;28;20061;-77
2023/04/13 02:07:28;;;;;;;;;;;6.40;99.90;;;;;;5090144;28;20290;-76
2023/04/13 02:09:54;;;;;;;;;;;6.30;99.90;;;;;;5095320;28;20301;-77
2023/04/13 02:12:19;;;;;;;;;;;6.30;99.90;;;;;;5110270;28;19924;-76
2023/04/13 02:14:45;;;;;;;;;;;6.30;99.90;;;;;;5109086;28;20354;-77
2023/04/13 02:17:11;;;;;;;;;;;6.30;99.90;;;;;;5109492;28;20368;-77
2023/04/13 02:19:36;;;;;;;;;;;6.20;99.90;;;;;;5108656;28;19958;-76
2023/04/13 02:22:02;;;;;;;;;;;6.20;99.90;;;;;;5110541;28;19943;-77
2023/04/13 02:24:29;;;;;;;;;;;6.20;99.90;;;;;;5109898;28;19977;-76
2023/04/13 02:26:55;;;;;;;;;;;6.20;99.90;;;;;;5109321;28;19924;-77
2023/04/13 02:29:21;;;;;;;;;;;6.20;99.90;;;;;;5110138;28;19946;-77
2023/04/13 02:31:47;;;;;;;;;;;6.20;99.90;;;;;;5085528;28;20290;-76
2023/04/13 02:34:13;;;;;;;;;;;6.20;99.90;;;;;;5095974;28;19928;-77
2023/04/13 02:36:39;;;;;;;;;;;6.20;99.90;;;;;;5111082;28;19924;-76
2023/04/13 02:39:05;;;;;;;;;;;6.10;99.90;;;;;;5110226;28;19924;-76
2023/04/13 02:41:30;;;;;;;;;;;6.20;99.90;;;;;;5096542;28;19969;-76
2023/04/13 02:43:56;;;;;;;;;;;6.20;99.90;;;;;;5090048;28;19924;-77
2023/04/13 02:46:22;;;;;;;;;;;6.20;99.90;;;;;;5085384;28;19977;-76
2023/04/13 02:48:47;;;;;;;;;;;6.20;99.90;;;;;;5102855;28;19924;-76
2023/04/13 02:51:13;;;;;;;;;;;6.10;99.90;;;;;;5089693;28;19947;-77
2023/04/13 02:53:38;;;;;;;;;;;6.10;99.90;;;;;;5089328;28;19946;-76
2023/04/13 02:56:05;;;;;;;;;;;6.10;99.90;;;;;;5090768;28;19927;-76
2023/04/13 02:58:31;;;;;;;;;;;6.10;99.90;;;;;;5090608;28;20397;-76
2023/04/13 03:00:57;;;;;;;;;;;6.10;99.90;;;;;;5089308;28;19931;-76
2023/04/13 03:03:23;;;;;;;;;;;6.10;99.90;;;;;;5089364;28;19963;-76
2023/04/13 03:05:51;;;;;;;;;;;6.10;99.90;;;;;;5090839;28;20377;-77
2023/04/13 03:08:17;;;;;;;;;;;6.10;99.90;;;;;;5089158;28;20286;-76
2023/04/13 03:10:43;;;;;;;;;;;6.10;99.90;;;;;;5090625;28;19934;-76
2023/04/13 03:13:09;;;;;;;;;;;6.10;99.90;;;;;;5090072;28;19934;-76
2023/04/13 03:15:35;;;;;;;;;;;6.10;99.90;;;;;;5089320;28;20003;-76
2023/04/13 03:18:02;;;;;;;;;;;6.10;99.90;;;;;;5088847;28;20542;-76
2023/04/13 03:20:28;;;;;;;;;;;6.10;99.90;;;;;;5089922;28;19967;-76
2023/04/13 03:22:54;;;;;;;;;;;6.10;99.90;;;;;;5090190;28;19974;-76
2023/04/13 03:25:20;;;;;;;;;;;6.10;99.90;;;;;;5088660;28;19924;-76
2023/04/13 03:27:45;;;;;;;;;;;6.10;99.90;;;;;;5089700;28;19977;-76
2023/04/13 03:30:11;;;;;;;;;;;6.10;99.90;;;;;;5089628;28;19924;-76
2023/04/13 03:32:37;;;;;;;;;;;6.10;99.90;;;;;;5094846;28;19924;-76
2023/04/13 03:35:03;;;;;;;;;;;6.10;99.90;;;;;;5109958;28;19927;-76
2023/04/13 03:37:31;;;;;;;;;;;6.10;99.90;;;;;;5088448;28;20429;-76
2023/04/13 03:39:57;;;;;;;;;;;6.10;99.90;;;;;;5088069;28;19924;-76
2023/04/13 03:42:22;;;;;;;;;;;6.10;99.90;;;;;;5089524;28;19939;-76
2023/04/13 03:44:48;;;;;;;;;;;6.10;99.90;;;;;;5088369;28;19947;-76
2023/04/13 03:47:13;;;;;;;;;;;6.10;99.90;;;;;;5088394;28;19928;-76
2023/04/13 03:49:39;;;;;;;;;;;6.20;99.90;;;;;;5088962;28;19924;-76
2023/04/13 03:52:04;;;;;;;;;;;6.10;99.90;;;;;;5087783;28;19964;-76
2023/04/13 03:54:30;;;;;;;;;;;6.10;99.90;;;;;;5089495;28;20005;-76
2023/04/13 03:56:57;;;;;;;;;;;6.10;99.90;;;;;;5089622;28;19924;-76
2023/04/13 03:59:22;;;;;;;;;;;6.10;99.90;;;;;;5089977;28;20007;-76
2023/04/13 04:01:48;;;;;;;;;;;6.10;99.90;;;;;;5108666;28;20072;-76
2023/04/13 04:04:14;;;;;;;;;;;6.10;99.90;;;;;;5108990;28;20633;-77
2023/04/13 04:06:40;;;;;;;;;;;6.10;99.90;;;;;;5093816;28;19930;-76
2023/04/13 04:09:05;;;;;;;;;;;6.20;99.90;;;;;;5106283;28;20006;-76
2023/04/13 04:11:31;;;;;;;;;;;6.10;99.90;;;;;;5082991;28;19924;-76
2023/04/13 04:13:56;;;;;;;;;;;6.20;99.90;;;;;;5088715;28;19960;-76
2023/04/13 04:16:22;;;;;;;;;;;6.20;99.90;;;;;;5104437;28;20613;-76
2023/04/13 04:18:47;;;;;;;;;;;6.20;99.90;;;;;;5088202;28;19924;-76
2023/04/13 04:21:14;;;;;;;;;;;6.20;99.90;;;;;;5103590;28;19931;-76
2023/04/13 04:23:39;;;;;;;;;;;6.20;99.90;;;;;;5104864;28;20389;-76
2023/04/13 04:26:06;;;;;;;;;;;6.20;99.90;;;;;;5104332;28;19928;-76
2023/04/13 04:28:37;;;;;;;;;;;6.20;99.90;;;;;;5107053;28;20436;-76
2023/04/13 04:31:04;;;;;;;;;;;6.20;99.90;;;;;;5090606;28;19947;-76
2023/04/13 04:33:29;;;;;;;;;;;6.20;99.90;;;;;;5082157;28;20360;-76
2023/04/13 04:35:55;;;;;;;;;;;6.20;99.90;;;;;;5101447;28;20015;-76
2023/04/13 04:38:23;;;;;;;;;;;6.30;99.90;;;;;;5089035;28;19931;-76
2023/04/13 04:40:49;;;;;;;;;;;6.30;99.90;;;;;;5091978;28;19974;-76
2023/04/13 04:43:15;;;;;;;;;;;6.30;99.90;;;;;;5091530;28;19928;-76
2023/04/13 04:45:42;;;;;;;;;;;6.30;99.90;;;;;;5075207;28;19931;-76
2023/04/13 04:48:08;;;;;;;;;;;6.30;99.90;;;;;;5092930;28;19947;-76
2023/04/13 04:50:36;;;;;;;;;;;6.30;99.90;;;;;;5091957;28;19931;-76
2023/04/13 04:53:04;;;;;;;;;;;6.30;99.90;;;;;;5091943;28;19924;-76
2023/04/13 04:55:30;;;;;;;;;;;6.30;99.90;;;;;;5092845;28;19984;-76
2023/04/13 04:57:56;;;;;;;;;;;6.20;99.90;;;;;;5091811;28;20011;-76
2023/04/13 05:00:24;;;;;;;;;;;6.20;99.90;;;;;;5091697;28;19931;-76
2023/04/13 05:02:49;;;;;;;;;;;6.20;99.90;;;;;;5105613;28;20931;-76
2023/04/13 05:05:15;;;;;;;;;;;6.20;99.90;;;;;;5111821;28;20009;-76
2023/04/13 05:07:40;;;;;;;;;;;6.20;99.90;;;;;;5109465;28;19924;-76
2023/04/13 05:10:06;;;;;;;;;;;6.20;99.90;;;;;;5110323;28;19924;-76
2023/04/13 05:12:32;;;;;;;;;;;6.20;99.90;;;;;;5109574;28;19928;-76
2023/04/13 05:14:57;;;;;;;;;;;6.20;99.90;;;;;;5111362;28;19930;-76
2023/04/13 05:17:24;;;;;;;;;;;6.20;99.90;;;;;;5107236;28;20044;-75
2023/04/13 05:19:50;;;;;;;;;;;6.10;99.90;;;;;;5108473;28;19927;-76
2023/04/13 05:22:16;;;;;;;;;;;6.10;99.90;;;;;;5106169;28;19928;-76
2023/04/13 05:24:41;;;;;;;;;;;6.10;99.90;;;;;;5108234;28;19930;-76
2023/04/13 05:27:08;;;;;;;;;;;6.10;99.90;;;;;;5107161;28;19924;-76
2023/04/13 05:29:34;;;;;;;;;;;6.10;99.90;;;;;;5108749;28;19934;-76
2023/04/13 05:32:00;;;;;;;;;;;6.10;99.90;;;;;;5081702;28;19928;-76
2023/04/13 05:34:26;;;;;;;;;;;6.10;99.90;;;;;;5091268;28;20601;-76
2023/04/13 05:36:52;;;;;;;;;;;6.10;99.90;;;;;;5090203;28;20309;-76
2023/04/13 05:39:18;;;;;;;;;;;6.20;99.90;;;;;;5090718;28;19928;-76
2023/04/13 05:41:44;;;;;;;;;;;6.30;99.90;;;;;;5074410;28;20011;-74
2023/04/13 05:44:09;;;;;;;;;;;6.30;99.90;;;;;;5102646;28;20007;-74
2023/04/13 05:46:35;;;;;;;;;;;6.30;99.90;;;;;;5090014;28;19939;-75
2023/04/13 05:49:01;;;;;;;;;;;6.30;99.90;;;;;;5087622;28;19924;-75
2023/04/13 05:51:30;;;;;;;;;;;6.30;99.90;;;;;;5092426;28;19924;-75
2023/04/13 05:53:56;;;;;;;;;;;6.30;99.90;;;;;;5097556;28;19932;-76
2023/04/13 05:56:22;;;;;;;;;;;6.30;99.90;;;;;;5084990;28;20272;-76
2023/04/13 05:58:48;;;;;;;;;;;6.30;99.90;;;;;;5108703;28;19969;-76
2023/04/13 06:01:15;;;;;;;;;;;6.40;99.90;;;;;;5107884;28;19924;-76
2023/04/13 06:03:42;;;;;;;;;;;6.40;99.90;;;;;;5110644;28;19923;-76
2023/04/13 06:06:07;;;;;;;;;;;6.40;99.90;;;;;;5107663;28;19923;-76
2023/04/13 06:08:33;;;;;;;;;;;6.40;99.90;;;;;;5109015;28;19973;-76
2023/04/13 06:10:59;;;;;;;;;;;6.40;99.90;;;;;;5107180;28;19977;-76
2023/04/13 06:13:25;;;;;;;;;;;6.40;99.90;;;;;;5098077;28;19969;-76
2023/04/13 06:15:51;;;;;;;;;;;6.50;99.90;;;;;;5105561;28;20381;-77
2023/04/13 06:18:17;;;;;;;;;;;6.50;99.90;;;;;;5086254;28;19924;-76
2023/04/13 06:20:42;;;;;;;;;;;6.60;99.90;;;;;;5104887;28;19931;-77
2023/04/13 06:23:08;;;;;;;;;;;6.60;99.90;;;;;;5096911;28;19927;-76
2023/04/13 06:25:34;;;;;;;;;;;6.70;99.90;;;;;;5105207;28;19935;-76
2023/04/13 06:28:00;;;;;;;;;;;6.80;99.90;;;;;;5107798;28;19928;-77
2023/04/13 06:30:26;;;;;;;;;;;6.90;99.90;;;;;;5105730;28;19923;-77
2023/04/13 06:32:51;;;;;;;;;;;7.00;99.90;;;;;;5090135;28;20393;-76
2023/04/13 06:35:17;;;;;;;;;;;7.20;99.90;;;;;;5103213;28;19924;-77
2023/04/13 06:37:42;;;;;;;;;;;7.20;99.90;;;;;;5090972;28;19928;-77
2023/04/13 06:40:11;;;;;;;;;;;7.30;99.90;;;;;;5104080;28;19928;-77
2023/04/13 06:42:40;;;;;;;;;;;7.30;99.90;;;;;;5109369;28;20302;-76
2023/04/13 06:45:07;;;;;;;;;;;7.40;99.90;;;;;;5107546;28;20279;-76
2023/04/13 06:47:32;;;;;;;;;;;7.50;99.90;;;;;;5101753;28;20021;-76
2023/04/13 06:50:01;;;;;;;;;;;7.60;99.90;;;;;;5103858;28;19980;-77
2023/04/13 06:52:26;;;;;;;;;;;7.60;99.90;;;;;;5109172;28;19947;-77
2023/04/13 06:54:52;;;;;;;;;;;7.60;99.90;;;;;;5107574;28;20374;-76
2023/04/13 06:57:18;;;;;;;;;;;7.60;99.90;;;;;;5108282;28;19931;-77
2023/04/13 06:59:43;;;;;;;;;;;7.50;99.90;;;;;;5105881;28;19985;-77
2023/04/13 07:02:09;;;;;;;;;;;7.40;99.90;;;;;;5107631;28;20417;-76
2023/04/13 07:04:34;;;;;;;;;;;7.40;99.90;;;;;;5106240;28;19930;-76
2023/04/13 07:07:01;;;;;;;;;;;7.40;99.90;;;;;;5109201;28;20441;-77
2023/04/13 07:09:26;;;;;;;;;;;7.40;99.90;;;;;;5105002;28;19924;-77
2023/04/13 07:11:52;;;;;;;;;;;7.40;99.90;;;;;;5108627;28;19934;-77
2023/04/13 07:14:17;;;;;;;;;;;7.50;99.90;;;;;;5106551;28;19923;-77
2023/04/13 07:16:43;;;;;;;;;;;7.50;99.90;;;;;;5107754;28;20350;-77
2023/04/13 07:19:08;;;;;;;;;;;7.50;99.90;;;;;;5104721;28;19927;-76
2023/04/13 07:21:34;;;;;;;;;;;7.50;99.90;;;;;;5106776;28;19924;-76
2023/04/13 07:24:00;;;;;;;;;;;7.60;99.90;;;;;;5104239;28;20346;-76
2023/04/13 07:26:26;;;;;;;;;;;7.60;99.90;;;;;;5079080;28;19924;-76
2023/04/13 07:28:51;;;;;;;;;;;7.60;99.90;;;;;;5099040;28;20305;-76
2023/04/13 07:31:17;;;;;;;;;;;7.60;99.90;;;;;;5089748;28;19928;-76
2023/04/13 07:33:42;;;;;;;;;;;7.60;99.90;;;;;;5085161;28;19928;-76
2023/04/13 07:36:08;;;;;;;;;;;7.60;99.90;;;;;;5090033;28;19935;-76
2023/04/13 07:38:34;;;;;;;;;;;7.60;99.90;;;;;;5090440;28;19924;-76
2023/04/13 07:41:00;;;;;;;;;;;7.70;99.90;;;;;;5089896;28;19928;-76
2023/04/13 07:43:25;;;;;;;;;;;7.80;99.90;;;;;;5088650;28;19947;-76
2023/04/13 07:45:51;;;;;;;;;;;7.80;99.90;;;;;;5097526;28;20428;-76
2023/04/13 07:48:16;;;;;;;;;;;7.80;99.90;;;;;;5092946;28;19925;-76
2023/04/13 07:50:42;;;;;;;;;;;8.00;99.90;;;;;;5089839;28;19931;-76
2023/04/13 07:53:08;;;;;;;;;;;8.00;99.90;;;;;;5088898;28;19924;-76
2023/04/13 07:55:34;;;;;;;;;;;8.00;99.90;;;;;;5101476;28;19924;-76
2023/04/13 07:58:00;;;;;;;;;;;7.90;99.90;;;;;;5100964;28;19928;-76
2023/04/13 08:00:25;;;;;;;;;;;7.90;99.90;;;;;;5108115;28;19924;-76
2023/04/13 08:02:52;;;;;;;;;;;7.90;99.90;;;;;;5106894;28;20431;-76
2023/04/13 08:05:18;;;;;;;;;;;7.80;99.90;;;;;;5107097;28;19923;-76
2023/04/13 08:07:45;;;;;;;;;;;7.80;99.90;;;;;;5105513;28;19993;-76
2023/04/13 08:10:11;;;;;;;;;;;7.80;99.90;;;;;;5083962;28;19924;-76
2023/04/13 08:12:36;;;;;;;;;;;7.80;99.90;;;;;;5105095;28;20362;-76
2023/04/13 08:15:02;;;;;;;;;;;7.80;99.90;;;;;;5110494;28;19934;-76
2023/04/13 08:17:27;;;;;;;;;;;7.90;99.90;;;;;;5091842;28;19924;-76
2023/04/13 08:19:53;;;;;;;;;;;8.00;99.90;;;;;;5111546;28;20433;-76
2023/04/13 08:22:19;;;;;;;;;;;8.20;99.90;;;;;;5108903;28;19950;-76
2023/04/13 08:24:44;;;;;;;;;;;8.40;99.90;;;;;;5103866;28;19924;-76
2023/04/13 08:27:10;;;;;;;;;;;8.60;99.90;;;;;;5102040;28;20386;-77
2023/04/13 08:29:35;;;;;;;;;;;8.70;99.90;;;;;;5093633;28;20635;-76
2023/04/13 08:32:01;;;;;;;;;;;8.80;99.90;;;;;;5080541;28;19951;-77
2023/04/13 08:34:26;;;;;;;;;;;9.00;99.90;;;;;;5094673;28;20019;-76
2023/04/13 08:36:54;;;;;;;;;;;9.10;99.90;;;;;;5109606;28;19989;-76
2023/04/13 08:39:20;;;;;;;;;;;9.30;99.90;;;;;;5111190;28;20393;-76
2023/04/13 08:41:46;;;;;;;;;;;9.40;99.90;;;;;;5109046;28;19976;-77
2023/04/13 08:44:12;;;;;;;;;;;9.40;99.90;;;;;;5111012;28;19924;-76
2023/04/13 08:46:39;;;;;;;;;;;9.30;99.90;;;;;;5107589;28;20300;-77
2023/04/13 08:49:06;;;;;;;;;;;9.10;99.90;;;;;;5089173;28;19924;-76
2023/04/13 08:51:32;;;;;;;;;;;8.90;99.90;;;;;;5105898;28;19932;-76
2023/04/13 08:53:58;;;;;;;;;;;8.80;99.90;;;;;;5110268;28;19923;-76
2023/04/13 08:56:24;;;;;;;;;;;8.80;99.90;;;;;;5106031;28;19924;-76
2023/04/13 08:58:52;;;;;;;;;;;8.80;99.90;;;;;;5091615;28;19924;-77
2023/04/13 09:01:19;;;;;;;;;;;8.80;99.90;;;;;;5102656;28;19931;-76
2023/04/13 09:03:59;;;;;;;;;;;8.70;99.90;;;;;;5110117;27;19931;-76
2023/04/13 09:06:33;;;;;;;;;;;8.80;99.90;;;;;;5104904;28;19924;-76
2023/04/13 09:09:02;;;;;;;;;;;8.90;99.90;;;;;;5109392;28;20010;-76
2023/04/13 09:11:27;;;;;;;;;;;9.10;99.90;;;;;;5104430;28;19964;-76
2023/04/13 09:13:53;;;;;;;;;;;9.30;99.90;;;;;;5107558;28;19994;-76
2023/04/13 09:16:18;;;;;;;;;;;9.30;99.90;;;;;;5105521;28;20404;-76
2023/04/13 09:19:03;;;;;;;;;;;9.30;99.90;;;;;;5097566;28;19924;-76
2023/04/13 09:21:36;;;;;;;;;;;9.20;99.90;;;;;;5107727;28;19924;-77
2023/04/13 09:24:02;;;;;;;;;;;9.10;99.90;;;;;;5092705;28;19924;-76
2023/04/13 09:26:37;;;;;;;;;;;9.00;99.90;;;;;;5108131;28;19992;-76
2023/04/13 09:29:04;;;;;;;;;;;9.00;99.90;;;;;;5102973;28;19976;-76
2023/04/13 09:31:32;;;;;;;;;;;9.00;99.90;;;;;;5099528;28;20297;-76
2023/04/13 09:33:58;;;;;;;;;;;9.00;99.90;;;;;;5090631;28;19924;-76
2023/04/13 09:36:24;;;;;;;;;;;9.10;99.90;;;;;;5091230;28;20416;-76
2023/04/13 09:38:51;;;;;;;;;;;9.10;99.90;;;;;;5090992;28;20390;-76
2023/04/13 09:41:26;;;;;;;;;;;9.10;99.90;;;;;;5090971;28;19928;-76
2023/04/13 09:43:52;;;;;;;;;;;9.10;99.90;;;;;;5090430;28;20389;-76
2023/04/13 09:46:18;;;;;;;;;;;9.20;99.90;;;;;;5090692;28;19930;-76
2023/04/13 09:48:43;;;;;;;;;;;9.50;99.90;;;;;;5090306;28;20011;-76
2023/04/13 09:51:09;;;;;;;;;;;9.60;99.90;;;;;;5085020;28;19939;-77
2023/04/13 09:53:39;;;;;;;;;;;9.70;99.90;;;;;;5108603;28;20297;-76
2023/04/13 09:56:04;;;;;;;;;;;9.60;99.90;;;;;;5097525;28;19931;-77
2023/04/13 09:58:30;;;;;;;;;;;9.50;99.90;;;;;;5095224;28;20297;-76
2023/04/13 10:00:56;;;;;;;;;;;9.30;99.90;;;;;;5109862;28;20007;-76
2023/04/13 10:03:22;;;;;;;;;;;9.20;99.90;;;;;;5108318;28;19977;-76
2023/04/13 10:05:48;;;;;;;;;;;9.10;99.90;;;;;;5097271;28;19924;-76
2023/04/13 10:08:13;;;;;;;;;;;9.00;99.90;;;;;;5106651;28;19928;-77
2023/04/13 10:10:39;;;;;;;;;;;8.80;99.90;;;;;;5110529;28;19934;-76
2023/04/13 10:13:09;;;;;;;;;;;8.60;99.90;;;;;;5108442;28;19931;-76
2023/04/13 10:15:35;;;;;;;;;;;8.40;99.90;;;;;;5109115;28;20327;-76
2023/04/13 10:18:20;;;;;;;;;;;8.30;99.90;;;;;;5108165;28;19927;-76
2023/04/13 10:20:46;;;;;;;;;;;8.20;99.90;;;;;;5106665;28;19924;-76
2023/04/13 10:23:12;;;;;;;;;;;8.10;99.90;;;;;;5108451;28;20147;-76
2023/04/13 10:25:47;;;;;;;;;;;8.00;99.90;;;;;;5104635;28;19932;-76
2023/04/13 10:28:13;;;;;;;;;;;7.90;99.90;;;;;;5108951;28;20281;-77
2023/04/13 10:30:47;;;;;;;;;;;7.90;99.90;;;;;;5104216;28;19924;-77
2023/04/13 10:33:12;;;;;;;;;;;7.90;99.90;;;;;;5089675;28;19936;-76
2023/04/13 10:35:39;;;;;;;;;;;8.00;99.90;;;;;;5094542;28;19947;-76
2023/04/13 10:38:07;;;;;;;;;;;7.90;99.90;;;;;;5098355;28;19935;-76
2023/04/13 10:40:42;;;;;;;;;;;7.90;99.90;;;;;;5103868;28;19935;-76
2023/04/13 10:43:08;;;;;;;;;;;8.30;99.90;;;;;;5091205;28;20302;-76
2023/04/13 10:45:36;;;;;;;;;;;8.50;99.90;;;;;;5073239;28;19946;-77
2023/04/13 10:48:02;;;;;;;;;;;8.70;99.90;;;;;;5084454;28;19967;-76
2023/04/13 10:50:27;;;;;;;;;;;9.40;99.90;;;;;;5102763;28;19965;-77
2023/04/13 10:53:03;;;;;;;;;;;10.10;99.90;;;;;;5102483;28;19924;-77
2023/04/13 10:55:30;;;;;;;;;;;10.60;99.90;;;;;;5083856;28;19954;-76
2023/04/13 10:57:57;;;;;;;;;;;10.90;99.90;;;;;;5106118;28;20393;-77
2023/04/13 11:00:24;;;;;;;;;;;11.40;99.90;;;;;;5107879;28;20006;-76
2023/04/13 11:02:50;;;;;;;;;;;11.60;99.90;;;;;;5106209;28;19924;-76
2023/04/13 11:05:19;;;;;;;;;;;11.80;99.90;;;;;;5107838;28;19935;-77
2023/04/13 11:07:45;;;;;;;;;;;11.80;99.90;;;;;;5087893;28;19939;-76
2023/04/13 11:10:11;;;;;;;;;;;12.10;99.90;;;;;;5098686;28;19924;-76
2023/04/13 11:12:37;;;;;;;;;;;12.50;99.90;;;;;;5105886;28;20308;-77
2023/04/13 11:15:03;;;;;;;;;;;12.70;99.90;;;;;;5101080;28;19924;-76
2023/04/13 11:17:28;;;;;;;;;;;12.80;99.90;;;;;;5088749;28;19969;-76
2023/04/13 11:19:55;;;;;;;;;;;12.90;99.90;;;;;;5088929;28;20309;-77
2023/04/13 11:22:24;;;;;;;;;;;13.20;99.90;;;;;;5088758;28;20054;-77
2023/04/13 11:24:50;;;;;;;;;;;13.30;99.90;;;;;;5090196;28;19935;-76
2023/04/13 11:27:20;;;;;;;;;;;13.20;99.90;;;;;;5091146;28;19928;-76
2023/04/13 11:29:55;;;;;;;;;;;12.70;99.90;;;;;;5108017;28;20437;-76
2023/04/13 11:32:21;;;;;;;;;;;12.10;99.90;;;;;;5064681;28;19924;-76
2023/04/13 11:34:50;;;;;;;;;;;11.60;99.90;;;;;;5097509;28;19932;-76
2023/04/13 11:37:15;;;;;;;;;;;11.30;99.90;;;;;;5085610;28;19931;-76
2023/04/13 11:39:44;;;;;;;;;;;11.10;99.90;;;;;;5089202;28;19927;-76
2023/04/13 11:42:10;;;;;;;;;;;11.10;99.90;;;;;;5089784;28;19943;-76
2023/04/13 11:44:36;;;;;;;;;;;11.20;99.90;;;;;;5100316;28;19969;-75
2023/04/13 11:47:02;;;;;;;;;;;11.40;99.90;;;;;;5101728;28;20375;-76
2023/04/13 11:49:28;;;;;;;;;;;11.60;99.90;;;;;;5101176;28;19927;-76
2023/04/13 11:51:54;;;;;;;;;;;12.00;99.90;;;;;;5095212;28;20010;-76
2023/04/13 11:54:21;;;;;;;;;;;12.30;99.90;;;;;;5109569;28;19924;-77
2023/04/13 11:56:47;;;;;;;;;;;12.50;99.90;;;;;;5106028;28;19931;-76
2023/04/13 11:59:13;;;;;;;;;;;12.50;99.90;;;;;;5109006;28;20405;-76
2023/04/13 12:01:39;;;;;;;;;;;12.40;99.90;;;;;;5102375;28;19930;-76
2023/04/13 12:04:05;;;;;;;;;;;12.50;99.90;;;;;;5099376;28;19927;-76
2023/04/13 12:06:31;;;;;;;;;;;12.60;99.90;;;;;;5089677;28;19999;-76
2023/04/13 12:08:57;;;;;;;;;;;12.60;99.90;;;;;;5100737;28;19924;-76
2023/04/13 12:11:24;;;;;;;;;;;12.40;99.90;;;;;;5093885;28;19928;-76
2023/04/13 12:13:52;;;;;;;;;;;12.20;99.90;;;;;;5108580;28;19924;-76
2023/04/13 12:16:28;;;;;;;;;;;12.00;99.90;;;;;;5106298;28;19923;-76
2023/04/13 12:18:54;;;;;;;;;;;11.90;99.90;;;;;;5106605;28;19928;-76
2023/04/13 12:21:20;;;;;;;;;;;11.80;99.90;;;;;;5105559;28;19924;-76
2023/04/13 12:23:56;;;;;;;;;;;11.90;99.90;;;;;;5105403;28;19924;-76
2023/04/13 12:26:29;;;;;;;;;;;12.10;99.90;;;;;;5095891;28;19931;-76
2023/04/13 12:28:57;;;;;;;;;;;12.10;99.90;;;;;;5102985;28;19932;-76
2023/04/13 12:31:23;;;;;;;;;;;12.00;99.90;;;;;;5072275;28;19932;-76
2023/04/13 12:33:50;;;;;;;;;;;11.90;99.90;;;;;;5084509;28;19932;-76
2023/04/13 12:36:16;;;;;;;;;;;11.60;99.90;;;;;;5089131;28;20336;-77
2023/04/13 12:38:41;;;;;;;;;;;11.30;99.90;;;;;;5092056;28;19923;-76
2023/04/13 12:41:08;;;;;;;;;;;11.10;99.90;;;;;;5109246;28;19924;-76
2023/04/13 12:43:34;;;;;;;;;;;10.90;99.90;;;;;;5108169;28;20116;-76
2023/04/13 12:46:00;;;;;;;;;;;10.90;99.90;;;;;;5108783;28;20018;-76
2023/04/13 12:48:26;;;;;;;;;;;10.80;99.90;;;;;;5094220;28;20068;-76
2023/04/13 12:50:52;;;;;;;;;;;10.80;99.90;;;;;;5108812;28;19924;-76
2023/04/13 12:53:17;;;;;;;;;;;10.80;99.90;;;;;;5105327;28;20014;-76
2023/04/13 12:55:43;;;;;;;;;;;10.80;99.90;;;;;;5107774;28;20085;-76
2023/04/13 12:58:09;;;;;;;;;;;10.90;99.90;;;;;;5104827;28;20026;-77
2023/04/13 13:00:34;;;;;;;;;;;11.00;99.90;;;;;;5110277;28;19924;-76
2023/04/13 13:03:03;;;;;;;;;;;11.10;99.90;;;;;;5108056;28;19931;-76
2023/04/13 13:05:29;;;;;;;;;;;11.10;99.90;;;;;;5109910;28;19931;-76
2023/04/13 13:07:55;;;;;;;;;;;11.20;99.90;;;;;;5106182;28;19924;-76
2023/04/13 13:10:20;;;;;;;;;;;11.30;99.90;;;;;;5110671;28;20287;-76
2023/04/13 13:12:46;;;;;;;;;;;11.30;99.90;;;;;;5106707;28;19924;-76
2023/04/13 13:15:13;;;;;;;;;;;11.20;99.90;;;;;;5109307;28;20377;-76
2023/04/13 13:17:39;;;;;;;;;;;11.20;99.90;;;;;;5095294;28;19930;-77
2023/04/13 13:20:09;;;;;;;;;;;11.10;99.90;;;;;;5108792;28;19923;-76
2023/04/13 13:22:35;;;;;;;;;;;11.10;99.90;;;;;;5105798;28;19925;-77
2023/04/13 13:25:02;;;;;;;;;;;11.00;99.90;;;;;;5100876;28;19924;-76
2023/04/13 13:27:28;;;;;;;;;;;10.90;99.90;;;;;;5105528;28;20013;-76
2023/04/13 13:29:53;;;;;;;;;;;10.90;99.90;;;;;;5110287;28;19971;-76
2023/04/13 13:32:19;;;;;;;;;;;10.90;99.90;;;;;;5084055;28;19924;-76
2023/04/13 13:34:44;;;;;;;;;;;10.90;99.90;;;;;;5112430;28;19969;-76
2023/04/13 13:37:10;;;;;;;;;;;11.00;99.90;;;;;;5110769;28;20522;-77
2023/04/13 13:39:36;;;;;;;;;;;11.00;99.90;;;;;;5110419;28;19976;-76
2023/04/13 13:42:02;;;;;;;;;;;11.00;99.90;;;;;;5107975;28;20008;-76
2023/04/13 13:44:28;;;;;;;;;;;11.10;99.90;;;;;;5100783;28;20437;-76
2023/04/13 13:46:53;;;;;;;;;;;11.10;99.90;;;;;;5105249;28;19932;-76
2023/04/13 13:49:19;;;;;;;;;;;11.10;99.90;;;;;;5110255;28;19931;-76
2023/04/13 13:51:44;;;;;;;;;;;11.10;99.90;;;;;;5108961;28;20381;-76
2023/04/13 13:54:10;;;;;;;;;;;11.00;99.90;;;;;;5110267;28;19927;-76
2023/04/13 13:56:35;;;;;;;;;;;10.90;99.90;;;;;;5108687;28;19924;-76
2023/04/13 13:59:02;;;;;;;;;;;10.90;99.90;;;;;;5109991;28;19927;-76
2023/04/13 14:01:27;;;;;;;;;;;10.80;99.90;;;;;;5108314;28;19924;-76
2023/04/13 14:03:53;;;;;;;;;;;10.80;99.90;;;;;;5110235;28;19927;-76
2023/04/13 14:06:19;;;;;;;;;;;10.80;99.90;;;;;;5090871;28;19924;-76
2023/04/13 14:08:45;;;;;;;;;;;10.90;99.90;;;;;;5109071;28;19932;-77
2023/04/13 14:11:11;;;;;;;;;;;10.90;99.90;;;;;;5104215;28;19981;-77
2023/04/13 14:13:36;;;;;;;;;;;10.90;99.90;;;;;;5098226;28;20518;-76
2023/04/13 14:16:02;;;;;;;;;;;10.90;99.90;;;;;;5106911;28;19924;-76
2023/04/13 14:18:28;;;;;;;;;;;10.80;99.90;;;;;;5108152;28;19971;-76
2023/04/13 14:20:53;;;;;;;;;;;10.70;99.90;;;;;;5107254;28;19967;-76
2023/04/13 14:23:19;;;;;;;;;;;10.70;99.90;;;;;;5109307;28;20014;-76